Time;durP1;ratioP1;P1;durP2;ratioP2;P2;SDS_P1;SDS_P2;PMS_P1;PMS_P2;Temp;Humidity;BMP_temperature;BMP_pressure;BME280_temperature;BME280_humidity;BME280_pressure;Samples;Min_cycle;Max_cycle;Signal;HPM_P1;HPM_P2
2022/08/17 00:00:42;;;;;;;5.13;4.00;;;;;;;;;;5052135;28;20017;-46
2022/08/17 00:03:23;;;;;;;8.65;3.95;;;;;;;;;;5052307;28;20377;-44
2022/08/17 00:06:00;;;;;;;5.78;4.00;;;;;;;;;;5052122;28;20025;-46
2022/08/17 00:08:33;;;;;;;4.80;3.95;;;;;;;;;;5052159;28;20025;-46
2022/08/17 00:11:00;;;;;;;6.30;4.07;;;;;;;;;;5052079;28;20033;-46
2022/08/17 00:13:36;;;;;;;6.78;3.65;;;;;;;;;;5034217;28;20036;-47
2022/08/17 00:16:12;;;;;;;7.10;4.18;;;;;;;;;;5053067;28;20028;-45
2022/08/17 00:18:38;;;;;;;9.80;4.03;;;;;;;;;;5056400;28;20373;-45
2022/08/17 00:21:05;;;;;;;4.47;4.07;;;;;;;;;;5056042;28;20021;-47
2022/08/17 00:23:31;;;;;;;5.43;4.20;;;;;;;;;;5056116;28;20025;-46
2022/08/17 00:25:57;;;;;;;4.20;3.80;;;;;;;;;;5055964;28;20396;-46
2022/08/17 00:28:23;;;;;;;6.15;3.88;;;;;;;;;;5055950;28;20027;-45
2022/08/17 00:30:50;;;;;;;10.35;4.05;;;;;;;;;;5055882;28;20040;-45
2022/08/17 00:33:28;;;;;;;5.28;3.75;;;;;;;;;;5056098;28;20035;-44
2022/08/17 00:35:57;;;;;;;6.22;3.55;;;;;;;;;;5055559;28;20496;-44
2022/08/17 00:38:24;;;;;;;8.45;3.85;;;;;;;;;;5055690;28;20586;-44
2022/08/17 00:41:14;;;;;;;4.35;3.67;;;;;;;;;;5055608;28;20033;-44
2022/08/17 00:43:42;;;;;;;9.02;4.25;;;;;;;;;;5027970;28;20219;-45
2022/08/17 00:46:32;;;;;;;7.55;3.72;;;;;;;;;;5055563;28;20021;-44
2022/08/17 00:48:58;;;;;;;7.55;3.72;;;;;;;;;;5055146;28;20033;-46
2022/08/17 00:51:27;;;;;;;7.35;4.10;;;;;;;;;;5055710;28;20021;-45
2022/08/17 00:54:29;;;;;;;5.03;4.15;;;;;;;;;;5055712;28;20025;-46
2022/08/17 00:57:13;;;;;;;5.32;3.95;;;;;;;;;;5055616;28;20025;-50
2022/08/17 00:59:46;;;;;;;14.15;3.83;;;;;;;;;;5055264;28;20090;-44
2022/08/17 01:02:14;;;;;;;5.78;4.00;;;;;;;;;;5055231;28;20039;-45
2022/08/17 01:04:42;;;;;;;8.30;4.13;;;;;;;;;;5055159;28;20029;-45
2022/08/17 01:07:10;;;;;;;6.80;4.88;;;;;;;;;;5055429;28;20071;-45
2022/08/17 01:09:35;;;;;;;7.10;4.50;;;;;;;;;;5055079;28;20021;-46
2022/08/17 01:12:01;;;;;;;5.32;4.15;;;;;;;;;;5055000;28;20025;-46
2022/08/17 01:14:27;;;;;;;7.60;4.35;;;;;;;;;;5055268;28;20025;-44
2022/08/17 01:16:54;;;;;;;4.78;4.00;;;;;;;;;;5055056;28;20400;-44
2022/08/17 01:19:23;;;;;;;6.30;4.35;;;;;;;;;;5054830;28;20079;-45
2022/08/17 01:22:03;;;;;;;5.43;4.38;;;;;;;;;;5055092;28;20495;-44
2022/08/17 01:24:29;;;;;;;9.13;4.57;;;;;;;;;;5054865;28;20021;-47
2022/08/17 01:26:55;;;;;;;5.22;3.92;;;;;;;;;;5054222;28;20021;-45
2022/08/17 01:29:23;;;;;;;6.63;4.05;;;;;;;;;;5054700;28;20028;-45
2022/08/17 01:31:52;;;;;;;5.00;3.75;;;;;;;;;;5054699;28;20017;-48
2022/08/17 01:34:19;;;;;;;5.00;4.07;;;;;;;;;;5054583;28;20036;-45
2022/08/17 01:36:47;;;;;;;6.10;4.25;;;;;;;;;;5054493;28;20041;-47
2022/08/17 01:39:20;;;;;;;9.02;4.50;;;;;;;;;;5054517;28;20063;-49
2022/08/17 01:41:48;;;;;;;6.07;4.40;;;;;;;;;;5054722;28;20036;-48
2022/08/17 01:44:15;;;;;;;5.55;4.40;;;;;;;;;;5054406;28;20032;-45
2022/08/17 01:46:41;;;;;;;4.50;4.10;;;;;;;;;;5054444;28;20477;-45
2022/08/17 01:49:09;;;;;;;6.22;3.92;;;;;;;;;;5054581;28;20021;-50
2022/08/17 01:51:35;;;;;;;5.35;4.20;;;;;;;;;;5054380;28;20028;-49
2022/08/17 01:54:04;;;;;;;5.32;4.00;;;;;;;;;;5054276;28;20056;-45
2022/08/17 01:56:32;;;;;;;10.50;4.03;;;;;;;;;;5054524;28;20103;-44
2022/08/17 01:58:58;;;;;;;8.63;4.05;;;;;;;;;;5054164;28;20373;-44
2022/08/17 02:01:26;;;;;;;6.18;4.13;;;;;;;;;;5054107;28;20050;-45
2022/08/17 02:03:52;;;;;;;5.75;3.90;;;;;;;;;;5054031;28;20032;-45
2022/08/17 02:06:18;;;;;;;6.45;4.15;;;;;;;;;;5036418;28;20029;-44
2022/08/17 02:08:45;;;;;;;4.45;4.03;;;;;;;;;;5054271;28;20039;-44
2022/08/17 02:11:14;;;;;;;6.07;3.90;;;;;;;;;;5054247;28;20082;-44
2022/08/17 02:13:41;;;;;;;4.93;4.00;;;;;;;;;;5053867;28;20044;-45
2022/08/17 02:16:06;;;;;;;4.18;3.67;;;;;;;;;;5053871;28;20032;-44
2022/08/17 02:18:32;;;;;;;10.15;4.30;;;;;;;;;;5053799;28;20017;-45
2022/08/17 02:20:57;;;;;;;5.97;3.97;;;;;;;;;;5054046;28;20047;-45
2022/08/17 02:23:25;;;;;;;7.00;4.00;;;;;;;;;;5053625;28;20477;-45
2022/08/17 02:25:51;;;;;;;5.93;3.88;;;;;;;;;;5053993;28;20025;-45
2022/08/17 02:28:17;;;;;;;5.47;3.72;;;;;;;;;;5053927;28;20025;-46
2022/08/17 02:30:43;;;;;;;12.52;4.03;;;;;;;;;;5035908;28;20362;-48
2022/08/17 02:33:09;;;;;;;6.03;3.85;;;;;;;;;;5053480;28;20180;-46
2022/08/17 02:35:36;;;;;;;4.28;3.88;;;;;;;;;;5053142;28;20049;-48
2022/08/17 02:38:04;;;;;;;5.80;4.13;;;;;;;;;;5052812;28;20116;-44
2022/08/17 02:40:31;;;;;;;7.80;3.60;;;;;;;;;;5053037;28;20033;-45
2022/08/17 02:42:56;;;;;;;4.20;3.80;;;;;;;;;;5053549;28;20381;-45
2022/08/17 02:45:23;;;;;;;5.32;3.95;;;;;;;;;;5053355;28;20028;-44
2022/08/17 02:47:50;;;;;;;5.15;4.20;;;;;;;;;;5053581;28;20033;-44
2022/08/17 02:50:20;;;;;;;5.00;4.28;;;;;;;;;;5053491;28;20013;-45
2022/08/17 02:52:47;;;;;;;5.78;4.80;;;;;;;;;;5053199;28;20104;-45
2022/08/17 02:55:16;;;;;;;6.72;4.15;;;;;;;;;;5053370;28;20135;-44
2022/08/17 02:57:42;;;;;;;7.45;4.90;;;;;;;;;;5053093;28;20488;-49
2022/08/17 03:00:14;;;;;;;8.80;4.70;;;;;;;;;;5053086;28;20070;-46
2022/08/17 03:02:41;;;;;;;5.45;4.22;;;;;;;;;;5052886;28;20488;-50
2022/08/17 03:05:09;;;;;;;4.55;4.05;;;;;;;;;;5052995;28;20479;-45
2022/08/17 03:07:35;;;;;;;6.10;4.43;;;;;;;;;;5052934;28;20064;-46
2022/08/17 03:10:01;;;;;;;9.32;4.22;;;;;;;;;;5052874;28;20025;-47
2022/08/17 03:12:32;;;;;;;6.45;3.97;;;;;;;;;;5053130;28;20031;-45
2022/08/17 03:15:00;;;;;;;6.32;4.32;;;;;;;;;;5052690;28;20365;-45
2022/08/17 03:17:26;;;;;;;6.97;4.28;;;;;;;;;;5052745;28;20068;-45
2022/08/17 03:19:51;;;;;;;5.40;4.43;;;;;;;;;;5052682;28;20052;-46
2022/08/17 03:22:16;;;;;;;5.38;4.40;;;;;;;;;;5052618;28;20032;-50
2022/08/17 03:24:42;;;;;;;5.50;4.45;;;;;;;;;;5052647;28;20036;-50
2022/08/17 03:27:07;;;;;;;4.30;3.90;;;;;;;;;;5052533;28;20033;-44
2022/08/17 03:29:33;;;;;;;5.90;4.10;;;;;;;;;;5052513;28;20108;-45
2022/08/17 03:31:58;;;;;;;7.80;4.75;;;;;;;;;;5052587;28;20104;-44
2022/08/17 03:34:23;;;;;;;6.03;4.43;;;;;;;;;;5052423;28;20059;-44
2022/08/17 03:36:49;;;;;;;5.72;4.57;;;;;;;;;;5052256;28;20044;-44
2022/08/17 03:39:14;;;;;;;7.90;4.95;;;;;;;;;;5052376;28;20021;-44
2022/08/17 03:41:40;;;;;;;5.45;4.47;;;;;;;;;;5052365;28;20032;-44
2022/08/17 03:44:06;;;;;;;7.75;4.50;;;;;;;;;;5052362;28;20029;-45
2022/08/17 03:57:29;;;;;;;9.50;5.15;;;;;;;;;;5052576;28;20447;-44
2022/08/17 03:59:55;;;;;;;11.88;4.65;;;;;;;;;;5052424;28;20021;-45
2022/08/17 04:02:25;;;;;;;11.02;4.60;;;;;;;;;;5052197;28;20677;-45
2022/08/17 04:04:51;;;;;;;7.38;4.47;;;;;;;;;;5052036;28;20033;-44
2022/08/17 04:07:21;;;;;;;11.20;4.72;;;;;;;;;;5052375;28;20045;-45
2022/08/17 04:09:47;;;;;;;;;;;;;;;;;;5052589;28;20025;-49
2022/08/17 04:12:15;;;;;;;12.90;5.00;;;;;;;;;;5052155;28;19913;-44
2022/08/17 04:14:41;;;;;;;8.30;4.32;;;;;;;;;;5052039;28;20021;-46
2022/08/17 04:17:07;;;;;;;6.40;4.32;;;;;;;;;;5052303;28;20096;-46
2022/08/17 04:19:33;;;;;;;11.45;4.05;;;;;;;;;;5052021;28;20545;-46
2022/08/17 04:21:58;;;;;;;9.20;4.35;;;;;;;;;;5052224;28;20025;-47
2022/08/17 04:24:24;;;;;;;9.90;4.10;;;;;;;;;;5052049;28;20424;-49
2022/08/17 04:26:50;;;;;;;10.13;4.60;;;;;;;;;;5051937;28;20031;-45
2022/08/17 04:29:17;;;;;;;8.32;4.10;;;;;;;;;;5052243;28;20052;-45
2022/08/17 04:31:43;;;;;;;5.32;3.85;;;;;;;;;;5051925;28;20052;-47
2022/08/17 04:34:08;;;;;;;9.93;4.03;;;;;;;;;;5034520;28;20063;-46
2022/08/17 04:36:34;;;;;;;8.93;4.55;;;;;;;;;;5033791;28;20037;-45
2022/08/17 04:39:00;;;;;;;8.32;4.00;;;;;;;;;;5052133;28;20033;-47
2022/08/17 04:44:10;;;;;;;7.38;3.50;;;;;;;;;;5052146;28;20124;-45
2022/08/17 04:46:36;;;;;;;18.58;4.15;;;;;;;;;;5051953;28;20044;-45
2022/08/17 04:49:09;;;;;;;10.88;3.90;;;;;;;;;;5052014;28;20028;-47
2022/08/17 04:51:40;;;;;;;15.40;4.28;;;;;;;;;;5051895;28;20021;-46
2022/08/17 04:54:17;;;;;;;11.27;4.15;;;;;;;;;;5051591;28;20060;-43
2022/08/17 04:56:43;;;;;;;14.50;3.72;;;;;;;;;;5051680;28;20100;-45
2022/08/17 04:59:15;;;;;;;6.88;4.03;;;;;;;;;;5051840;28;20075;-47
2022/08/17 05:01:42;;;;;;;8.20;3.83;;;;;;;;;;5051955;28;20024;-45
2022/08/17 05:04:11;;;;;;;7.60;3.47;;;;;;;;;;5055220;28;20029;-47
2022/08/17 05:06:37;;;;;;;9.30;3.75;;;;;;;;;;5055156;28;20082;-44
2022/08/17 05:09:03;;;;;;;9.48;3.63;;;;;;;;;;5055076;28;20498;-50
2022/08/17 05:11:30;;;;;;;7.55;3.97;;;;;;;;;;5054881;28;20566;-48
2022/08/17 05:13:57;;;;;;;8.30;4.00;;;;;;;;;;5054923;28;20068;-47
2022/08/17 05:16:24;;;;;;;9.60;4.15;;;;;;;;;;5055070;28;20416;-46
2022/08/17 05:18:50;;;;;;;9.13;3.47;;;;;;;;;;5054966;28;20037;-47
2022/08/17 05:21:17;;;;;;;46.53;5.45;;;;;;;;;;5054759;28;20027;-48
2022/08/17 05:23:43;;;;;;;15.10;4.25;;;;;;;;;;5054499;28;20135;-49
2022/08/17 05:26:12;;;;;;;6.82;3.92;;;;;;;;;;5054659;28;20025;-47
2022/08/17 05:28:37;;;;;;;6.80;3.90;;;;;;;;;;5054448;28;20032;-49
2022/08/17 05:31:03;;;;;;;13.90;3.83;;;;;;;;;;5054539;28;20032;-49
2022/08/17 05:33:32;;;;;;;9.35;3.75;;;;;;;;;;5054888;28;20457;-46
2022/08/17 05:35:59;;;;;;;9.25;3.40;;;;;;;;;;5054428;28;20049;-46
2022/08/17 05:38:28;;;;;;;6.75;3.70;;;;;;;;;;5054793;28;20385;-45
2022/08/17 05:40:54;;;;;;;5.05;3.45;;;;;;;;;;5054574;28;20072;-51
2022/08/17 05:43:29;;;;;;;6.13;3.42;;;;;;;;;;5054734;28;20123;-42
2022/08/17 05:46:06;;;;;;;8.13;3.80;;;;;;;;;;5054375;28;20036;-46
2022/08/17 05:48:38;;;;;;;5.82;3.50;;;;;;;;;;5054426;28;20024;-47
2022/08/17 05:51:36;;;;;;;7.25;3.58;;;;;;;;;;5054185;28;20024;-49
2022/08/17 05:54:32;;;;;;;11.43;4.40;;;;;;;;;;5054224;28;20533;-46
2022/08/17 05:57:19;;;;;;;13.27;4.05;;;;;;;;;;5054283;28;20086;-50
2022/08/17 06:00:16;;;;;;;9.45;3.88;;;;;;;;;;5054131;28;20081;-46
2022/08/17 06:03:06;;;;;;;4.97;3.78;;;;;;;;;;5049919;28;20041;-52
2022/08/17 06:05:52;;;;;;;10.07;4.38;;;;;;;;;;5054070;28;20064;-51
2022/08/17 06:08:55;;;;;;;6.82;4.50;;;;;;;;;;5053408;28;20677;-49
2022/08/17 06:11:37;;;;;;;4.93;3.90;;;;;;;;;;5053893;28;20029;-48
2022/08/17 06:14:17;;;;;;;5.03;4.47;;;;;;;;;;5053806;28;20033;-51
2022/08/17 06:16:48;;;;;;;8.55;4.07;;;;;;;;;;5053955;28;20025;-52
2022/08/17 06:19:19;;;;;;;10.10;4.32;;;;;;;;;;5053969;28;20158;-48
2022/08/17 06:21:48;;;;;;;10.38;4.35;;;;;;;;;;5053643;28;20033;-52
2022/08/17 06:24:35;;;;;;;8.00;4.20;;;;;;;;;;5053629;28;20036;-49
2022/08/17 06:27:53;;;;;;;4.90;4.00;;;;;;;;;;5053578;28;20043;-53
2022/08/17 06:30:33;;;;;;;7.07;4.18;;;;;;;;;;5048409;28;20461;-51
2022/08/17 06:33:05;;;;;;;4.72;4.20;;;;;;;;;;5053560;28;20036;-51
2022/08/17 06:35:42;;;;;;;5.35;4.35;;;;;;;;;;5053519;28;20028;-48
2022/08/17 06:38:11;;;;;;;7.82;4.53;;;;;;;;;;5051956;28;20036;-48
2022/08/17 06:40:44;;;;;;;5.10;3.80;;;;;;;;;;5051468;28;20040;-53
2022/08/17 06:43:41;;;;;;;6.40;3.88;;;;;;;;;;5052963;28;20037;-50
2022/08/17 06:46:07;;;;;;;6.72;3.90;;;;;;;;;;5035615;28;20381;-51
2022/08/17 06:48:57;;;;;;;8.13;3.75;;;;;;;;;;5051801;28;20024;-51
2022/08/17 06:51:26;;;;;;;6.85;3.67;;;;;;;;;;5053121;28;20076;-47
2022/08/17 06:53:53;;;;;;;5.32;3.67;;;;;;;;;;5053103;28;20366;-53
2022/08/17 06:56:38;;;;;;;7.93;4.38;;;;;;;;;;5053073;28;20032;-53
2022/08/17 06:59:06;;;;;;;8.35;4.00;;;;;;;;;;5053355;28;20418;-50
2022/08/17 07:01:36;;;;;;;5.57;3.97;;;;;;;;;;5053267;28;20473;-46
2022/08/17 07:04:11;;;;;;;6.63;4.03;;;;;;;;;;5052046;28;20037;-51
2022/08/17 07:06:48;;;;;;;8.65;4.00;;;;;;;;;;5052252;28;20025;-54
2022/08/17 07:09:24;;;;;;;7.57;4.05;;;;;;;;;;5051012;28;20086;-48
2022/08/17 07:11:58;;;;;;;16.65;4.90;;;;;;;;;;5051136;28;20033;-48
2022/08/17 07:14:28;;;;;;;5.22;3.70;;;;;;;;;;5050985;28;20024;-51
2022/08/17 07:16:57;;;;;;;8.27;3.80;;;;;;;;;;5050820;28;20098;-48
2022/08/17 07:19:26;;;;;;;12.15;5.05;;;;;;;;;;5049375;28;20035;-50
2022/08/17 07:22:36;;;;;;;6.75;4.03;;;;;;;;;;5049496;28;20029;-52
2022/08/17 07:25:06;;;;;;;6.45;3.60;;;;;;;;;;5047373;28;20562;-52
2022/08/17 07:27:36;;;;;;;7.20;3.70;;;;;;;;;;5052566;28;20039;-51
2022/08/17 07:30:09;;;;;;;6.40;3.40;;;;;;;;;;5052757;28;20108;-47
2022/08/17 07:32:40;;;;;;;7.70;3.97;;;;;;;;;;5052426;28;20029;-52
2022/08/17 07:35:09;;;;;;;8.13;3.80;;;;;;;;;;5052258;28;20107;-53
2022/08/17 07:37:39;;;;;;;8.40;3.30;;;;;;;;;;5051310;28;20507;-51
2022/08/17 07:40:32;;;;;;;4.25;3.60;;;;;;;;;;5051521;28;20104;-49
2022/08/17 07:43:06;;;;;;;6.53;3.67;;;;;;;;;;5043649;28;20037;-52
2022/08/17 07:48:24;;;;;;;5.53;3.22;;;;;;;;;;5052549;28;20039;-54
2022/08/17 07:50:52;;;;;;;9.88;3.90;;;;;;;;;;5051669;28;20025;-47
2022/08/17 07:53:23;;;;;;;9.68;3.80;;;;;;;;;;5051780;28;20021;-46
2022/08/17 07:55:51;;;;;;;7.63;3.80;;;;;;;;;;5051973;28;20473;-54
2022/08/17 07:58:22;;;;;;;6.65;4.00;;;;;;;;;;5052361;28;20374;-42
2022/08/17 08:01:14;;;;;;;5.45;3.47;;;;;;;;;;5052141;28;20017;-43
2022/08/17 08:03:44;;;;;;;5.18;3.65;;;;;;;;;;5051419;28;20044;-42
2022/08/17 08:06:20;;;;;;;23.00;4.38;;;;;;;;;;5050649;28;20051;-46
2022/08/17 08:08:53;;;;;;;8.30;3.63;;;;;;;;;;5050291;28;20464;-41
2022/08/17 08:11:33;;;;;;;4.47;3.50;;;;;;;;;;5050223;28;20033;-42
2022/08/17 08:14:20;;;;;;;10.35;4.18;;;;;;;;;;5050298;28;20035;-44
2022/08/17 08:17:02;;;;;;;5.22;3.78;;;;;;;;;;5049943;28;20607;-43
2022/08/17 08:19:29;;;;;;;7.93;3.38;;;;;;;;;;5050354;28;20044;-47
2022/08/17 08:22:10;;;;;;;6.22;3.70;;;;;;;;;;5050062;28;20056;-44
2022/08/17 08:25:06;;;;;;;4.78;3.80;;;;;;;;;;5050210;28;20037;-48
2022/08/17 08:27:34;;;;;;;5.20;3.60;;;;;;;;;;5050161;28;20036;-48
2022/08/17 08:30:06;;;;;;;4.35;3.40;;;;;;;;;;5032234;28;20029;-44
2022/08/17 08:32:31;;;;;;;3.67;3.38;;;;;;;;;;5050295;28;20112;-48
2022/08/17 08:35:10;;;;;;;4.53;3.60;;;;;;;;;;5050610;28;20111;-49
2022/08/17 08:37:47;;;;;;;8.98;3.70;;;;;;;;;;5051756;28;20144;-43
2022/08/17 08:40:43;;;;;;;5.03;3.80;;;;;;;;;;5053270;28;20035;-46
2022/08/17 08:43:27;;;;;;;3.85;3.30;;;;;;;;;;5054164;28;20033;-43
2022/08/17 08:46:14;;;;;;;5.22;3.95;;;;;;;;;;5054267;28;20106;-46
2022/08/17 08:48:57;;;;;;;5.20;3.35;;;;;;;;;;5054009;28;20024;-45
2022/08/17 08:51:38;;;;;;;7.22;3.92;;;;;;;;;;5053978;28;20056;-45
2022/08/17 08:54:09;;;;;;;5.85;3.78;;;;;;;;;;5053895;28;20025;-44
2022/08/17 08:56:47;;;;;;;6.47;3.72;;;;;;;;;;5053802;28;20053;-45
2022/08/17 08:59:19;;;;;;;7.78;3.55;;;;;;;;;;5053975;28;20362;-44
2022/08/17 09:02:21;;;;;;;6.10;3.38;;;;;;;;;;5053337;28;20032;-41
2022/08/17 09:04:56;;;;;;;3.72;3.38;;;;;;;;;;5053505;28;20497;-43
2022/08/17 09:07:33;;;;;;;3.38;3.15;;;;;;;;;;5035463;28;20032;-43
2022/08/17 09:10:24;;;;;;;7.72;3.38;;;;;;;;;;5053796;28;20156;-44
2022/08/17 09:12:52;;;;;;;8.13;3.45;;;;;;;;;;5053332;28;20029;-44
2022/08/17 09:15:27;;;;;;;4.18;3.70;;;;;;;;;;5053282;28;20159;-47
2022/08/17 09:18:03;;;;;;;4.72;3.22;;;;;;;;;;5053621;28;20033;-46
2022/08/17 09:20:41;;;;;;;7.47;3.75;;;;;;;;;;5053356;28;20057;-44
2022/08/17 09:23:13;;;;;;;6.05;3.40;;;;;;;;;;5036134;28;20631;-45
2022/08/17 09:25:57;;;;;;;3.80;3.25;;;;;;;;;;5053228;28;20424;-46
2022/08/17 09:28:35;;;;;;;4.47;3.33;;;;;;;;;;5053006;28;20036;-44
2022/08/17 09:31:15;;;;;;;5.25;3.47;;;;;;;;;;5053086;28;20090;-44
2022/08/17 09:33:44;;;;;;;8.88;3.60;;;;;;;;;;5052891;28;20025;-43
2022/08/17 09:36:31;;;;;;;5.97;3.30;;;;;;;;;;5052693;28;20056;-43
2022/08/17 09:39:18;;;;;;;7.63;3.70;;;;;;;;;;5052868;28;20032;-45
2022/08/17 09:41:44;;;;;;;5.60;3.13;;;;;;;;;;5034833;28;20033;-44
2022/08/17 09:44:21;;;;;;;5.53;2.90;;;;;;;;;;5052751;28;20499;-44
2022/08/17 09:47:03;;;;;;;6.70;3.50;;;;;;;;;;5052785;28;20773;-42
2022/08/17 09:49:55;;;;;;;7.80;3.22;;;;;;;;;;5035969;28;20037;-47
2022/08/17 09:52:23;;;;;;;9.35;3.22;;;;;;;;;;5043494;28;20040;-49
2022/08/17 09:54:52;;;;;;;4.25;3.45;;;;;;;;;;5034482;28;20029;-48
2022/08/17 09:57:29;;;;;;;11.27;3.17;;;;;;;;;;5052738;28;20033;-46
2022/08/17 10:00:16;;;;;;;4.28;2.83;;;;;;;;;;5034730;28;20092;-42
2022/08/17 10:03:08;;;;;;;4.15;3.17;;;;;;;;;;5052214;28;20163;-47
2022/08/17 10:05:51;;;;;;;4.43;2.85;;;;;;;;;;5052594;28;20384;-41
2022/08/17 10:08:43;;;;;;;4.95;2.90;;;;;;;;;;5052721;28;20104;-45
2022/08/17 10:14:32;;;;;;;6.82;2.95;;;;;;;;;;5052310;28;20731;-44
2022/08/17 10:17:14;;;;;;;3.88;2.80;;;;;;;;;;5052027;28;20028;-42
2022/08/17 10:19:56;;;;;;;4.80;2.80;;;;;;;;;;5052287;28;20076;-45
2022/08/17 10:28:05;;;;;;;7.47;2.77;;;;;;;;;;5052443;28;20082;-43
2022/08/17 10:30:35;;;;;;;4.65;2.90;;;;;;;;;;5052350;28;20032;-44
2022/08/17 10:33:12;;;;;;;2.80;2.60;;;;;;;;;;5051954;28;20028;-45
2022/08/17 10:35:43;;;;;;;3.10;2.50;;;;;;;;;;5052127;28;20045;-49
2022/08/17 10:38:27;;;;;;;5.63;2.88;;;;;;;;;;5052149;28;20036;-45
2022/08/17 10:41:00;;;;;;;3.13;2.83;;;;;;;;;;5051853;28;20024;-43
2022/08/17 10:43:51;;;;;;;3.17;2.60;;;;;;;;;;5051763;28;20455;-45
2022/08/17 10:46:23;;;;;;;4.22;2.47;;;;;;;;;;5052033;28;20025;-43
2022/08/17 10:49:17;;;;;;;3.58;2.70;;;;;;;;;;5051300;28;20036;-45
2022/08/17 10:51:48;;;;;;;7.65;2.80;;;;;;;;;;5051975;28;20491;-47
2022/08/17 10:54:45;;;;;;;4.10;2.55;;;;;;;;;;5050738;28;20029;-45
2022/08/17 10:57:28;;;;;;;4.78;2.90;;;;;;;;;;5051494;28;20036;-43
2022/08/17 11:00:00;;;;;;;5.00;3.00;;;;;;;;;;5050495;28;20025;-48
2022/08/17 11:02:30;;;;;;;4.00;2.85;;;;;;;;;;5051431;28;20055;-45
2022/08/17 11:04:59;;;;;;;7.57;2.95;;;;;;;;;;5051587;28;20109;-46
2022/08/17 11:07:49;;;;;;;5.97;2.87;;;;;;;;;;5051253;28;20499;-41
2022/08/17 11:10:47;;;;;;;3.80;2.70;;;;;;;;;;5050888;28;20032;-41
2022/08/17 11:13:38;;;;;;;8.25;2.90;;;;;;;;;;5051284;28;20082;-41
2022/08/17 11:16:18;;;;;;;6.38;2.88;;;;;;;;;;5050902;28;20108;-41
2022/08/17 11:18:52;;;;;;;4.13;2.78;;;;;;;;;;5051068;28;20025;-40
2022/08/17 11:21:30;;;;;;;4.20;3.22;;;;;;;;;;5051204;28;20021;-44
2022/08/17 11:24:09;;;;;;;5.30;2.80;;;;;;;;;;5051094;28;20111;-48
2022/08/17 11:26:39;;;;;;;4.10;2.38;;;;;;;;;;5032974;28;20037;-44
2022/08/17 11:29:16;;;;;;;4.35;2.85;;;;;;;;;;5051197;28;20029;-41
2022/08/17 11:31:45;;;;;;;3.25;2.80;;;;;;;;;;5051053;28;20029;-44
2022/08/17 11:34:20;;;;;;;5.63;2.47;;;;;;;;;;5050392;28;20032;-41
2022/08/17 11:37:04;;;;;;;2.83;2.60;;;;;;;;;;5049944;28;20516;-46
2022/08/17 11:39:59;;;;;;;5.43;2.70;;;;;;;;;;5050137;28;20037;-42
2022/08/17 11:42:35;;;;;;;4.03;2.50;;;;;;;;;;5032632;28;20024;-43
2022/08/17 11:45:26;;;;;;;3.20;2.35;;;;;;;;;;5050660;28;20090;-44
2022/08/17 11:53:42;;;;;;;8.95;2.30;;;;;;;;;;5036926;28;20039;-42
2022/08/17 11:56:39;;;;;;;34.30;3.72;;;;;;;;;;5050778;28;20108;-43
2022/08/17 11:59:38;;;;;;;2.95;1.90;;;;;;;;;;5047523;28;20037;-41
2022/08/17 12:02:31;;;;;;;5.15;2.10;;;;;;;;;;5050514;28;20032;-44
2022/08/17 12:05:19;;;;;;;4.30;1.90;;;;;;;;;;5050562;28;20033;-45
2022/08/17 12:07:46;;;;;;;;;;;;;;;;;;5051010;28;20096;-46
2022/08/17 12:10:16;;;;;;;92.80;5.82;;;;;;;;;;5050158;28;19916;-43
2022/08/17 12:12:43;;;;;;;5.78;1.88;;;;;;;;;;5053616;28;20029;-41
2022/08/17 12:15:27;;;;;;;5.72;1.98;;;;;;;;;;5054295;28;20091;-46
2022/08/17 12:17:55;;;;;;;4.97;1.80;;;;;;;;;;5054404;28;20032;-44
2022/08/17 12:20:26;;;;;;;4.45;2.00;;;;;;;;;;5053928;28;20067;-42
2022/08/17 12:23:07;;;;;;;3.42;2.00;;;;;;;;;;5053639;28;20032;-42
2022/08/17 12:26:16;;;;;;;4.60;1.70;;;;;;;;;;5036056;28;20032;-43
2022/08/17 12:28:45;;;;;;;2.65;1.67;;;;;;;;;;4998749;28;20152;-43
2022/08/17 12:31:21;;;;;;;3.00;1.83;;;;;;;;;;5054225;28;20546;-40
2022/08/17 12:33:50;;;;;;;2.15;1.95;;;;;;;;;;5053562;28;20063;-43
2022/08/17 12:36:20;;;;;;;3.05;1.60;;;;;;;;;;5054072;28;20053;-42
2022/08/17 12:39:00;;;;;;;4.95;1.70;;;;;;;;;;5054112;28;20028;-45
2022/08/17 12:41:37;;;;;;;2.08;1.88;;;;;;;;;;5036412;28;20029;-42
2022/08/17 12:44:25;;;;;;;2.30;1.80;;;;;;;;;;5054138;28;20071;-42
2022/08/17 12:46:53;;;;;;;4.55;1.98;;;;;;;;;;5053797;28;20033;-44
2022/08/17 12:49:28;;;;;;;2.33;1.60;;;;;;;;;;5054055;28;20112;-41
2022/08/17 12:52:22;;;;;;;4.85;2.05;;;;;;;;;;5053843;28;20036;-40
2022/08/17 12:55:05;;;;;;;2.97;1.80;;;;;;;;;;5053705;28;20488;-41
2022/08/17 12:57:33;;;;;;;8.43;2.30;;;;;;;;;;5054049;28;20041;-40
2022/08/17 13:00:28;;;;;;;2.60;1.80;;;;;;;;;;5053695;28;20354;-42
2022/08/17 13:03:06;;;;;;;6.72;1.77;;;;;;;;;;5053038;28;20389;-45
2022/08/17 13:05:40;;;;;;;6.25;2.08;;;;;;;;;;5053529;28;20033;-43
2022/08/17 13:08:22;;;;;;;3.22;2.00;;;;;;;;;;5053567;28;20099;-42
2022/08/17 13:10:59;;;;;;;12.05;2.33;;;;;;;;;;5052963;28;20158;-42
2022/08/17 13:13:37;;;;;;;2.58;1.80;;;;;;;;;;5053337;28;20029;-42
2022/08/17 13:16:08;;;;;;;3.00;2.08;;;;;;;;;;5053238;28;20021;-41
2022/08/17 13:18:42;;;;;;;4.05;1.80;;;;;;;;;;5053659;28;20040;-40
2022/08/17 13:21:25;;;;;;;2.72;2.20;;;;;;;;;;5053237;28;20029;-41
2022/08/17 13:24:02;;;;;;;5.15;2.28;;;;;;;;;;5052350;28;20036;-40
2022/08/17 13:26:31;;;;;;;8.35;2.28;;;;;;;;;;5053193;28;20476;-39
2022/08/17 13:28:57;;;;;;;2.45;1.90;;;;;;;;;;5053130;28;20029;-40
2022/08/17 13:31:29;;;;;;;5.18;2.03;;;;;;;;;;5053119;28;20029;-43
2022/08/17 13:34:22;;;;;;;6.75;2.30;;;;;;;;;;5053347;28;20082;-40
2022/08/17 13:36:49;;;;;;;16.15;2.08;;;;;;;;;;5052740;28;20049;-41
2022/08/17 13:39:23;;;;;;;11.05;2.25;;;;;;;;;;5053187;28;20036;-41
2022/08/17 13:41:51;;;;;;;2.75;2.00;;;;;;;;;;5052883;28;20025;-42
2022/08/17 13:44:32;;;;;;;6.03;1.80;;;;;;;;;;5035131;28;20511;-42
2022/08/17 13:46:58;;;;;;;2.20;2.00;;;;;;;;;;5052540;28;20059;-43
2022/08/17 13:49:25;;;;;;;35.35;3.15;;;;;;;;;;5052650;28;20377;-41
2022/08/17 13:51:51;;;;;;;3.67;1.80;;;;;;;;;;5052692;28;20051;-40
2022/08/17 13:54:25;;;;;;;8.23;2.00;;;;;;;;;;5052823;28;20037;-40
2022/08/17 13:57:26;;;;;;;6.95;2.20;;;;;;;;;;5052557;28;20025;-41
2022/08/17 14:00:08;;;;;;;4.70;1.75;;;;;;;;;;4971208;28;20034;-45
2022/08/17 14:02:34;;;;;;;5.00;2.00;;;;;;;;;;5044609;28;20043;-43
2022/08/17 14:05:00;;;;;;;3.40;2.20;;;;;;;;;;5052397;28;20278;-41
2022/08/17 14:07:28;;;;;;;4.32;2.20;;;;;;;;;;5052473;28;20087;-40
2022/08/17 14:09:59;;;;;;;3.20;2.28;;;;;;;;;;5052393;28;20024;-41
2022/08/17 14:12:29;;;;;;;2.63;1.73;;;;;;;;;;5052175;28;20075;-42
2022/08/17 14:14:55;;;;;;;8.90;2.70;;;;;;;;;;5052552;28;20025;-44
2022/08/17 14:17:22;;;;;;;10.30;2.35;;;;;;;;;;5052280;28;20024;-43
2022/08/17 14:19:49;;;;;;;11.32;2.30;;;;;;;;;;5052318;28;20052;-43
2022/08/17 14:22:22;;;;;;;2.53;2.00;;;;;;;;;;5052309;28;20194;-41
2022/08/17 14:24:50;;;;;;;7.05;2.20;;;;;;;;;;5052071;28;20029;-43
2022/08/17 14:27:17;;;;;;;4.40;1.90;;;;;;;;;;5051846;28;20070;-44
2022/08/17 14:29:43;;;;;;;7.85;2.10;;;;;;;;;;5051847;28;20021;-39
2022/08/17 14:32:27;;;;;;;4.22;2.15;;;;;;;;;;5033841;28;20032;-41
2022/08/17 14:34:56;;;;;;;12.05;2.22;;;;;;;;;;5050821;28;20150;-45
2022/08/17 14:37:24;;;;;;;3.20;2.07;;;;;;;;;;5051298;28;20049;-40
2022/08/17 14:39:49;;;;;;;6.13;2.05;;;;;;;;;;5049191;28;20101;-45
2022/08/17 14:42:17;;;;;;;5.68;2.53;;;;;;;;;;5051251;28;20469;-40
2022/08/17 14:44:43;;;;;;;6.63;2.28;;;;;;;;;;5052098;28;20024;-42
2022/08/17 14:47:14;;;;;;;36.45;3.55;;;;;;;;;;5051737;28;20020;-41
2022/08/17 14:49:40;;;;;;;1.90;1.80;;;;;;;;;;5034251;28;20112;-41
2022/08/17 14:52:10;;;;;;;4.50;2.00;;;;;;;;;;5051488;28;20045;-41
2022/08/17 14:54:36;;;;;;;3.70;2.22;;;;;;;;;;5051570;28;20554;-41
2022/08/17 14:57:02;;;;;;;3.25;1.90;;;;;;;;;;5033576;28;20124;-43
2022/08/17 14:59:27;;;;;;;2.63;2.00;;;;;;;;;;5033791;28;20048;-42
2022/08/17 15:01:55;;;;;;;8.05;2.03;;;;;;;;;;5051704;28;20477;-42
2022/08/17 15:04:20;;;;;;;8.23;2.47;;;;;;;;;;5051335;28;20385;-42
2022/08/17 15:06:47;;;;;;;3.88;2.05;;;;;;;;;;5051393;28;20075;-41
2022/08/17 15:09:13;;;;;;;4.40;2.17;;;;;;;;;;5050648;28;20072;-42
2022/08/17 15:11:39;;;;;;;4.53;2.00;;;;;;;;;;5033421;28;20039;-45
2022/08/17 15:14:05;;;;;;;3.50;2.10;;;;;;;;;;5051265;28;20111;-43
2022/08/17 15:16:34;;;;;;;2.92;1.90;;;;;;;;;;5051189;28;20063;-40
2022/08/17 15:19:03;;;;;;;4.03;1.98;;;;;;;;;;5034001;28;20227;-41
2022/08/17 15:21:29;;;;;;;1.75;1.65;;;;;;;;;;5033818;28;20082;-41
2022/08/17 15:23:55;;;;;;;5.13;2.10;;;;;;;;;;5051150;28;20029;-42
2022/08/17 15:26:21;;;;;;;2.42;2.03;;;;;;;;;;5050964;28;20033;-42
2022/08/17 15:28:46;;;;;;;3.60;1.95;;;;;;;;;;5050877;28;20028;-40
2022/08/17 15:31:12;;;;;;;4.10;2.00;;;;;;;;;;5050890;28;20072;-40
2022/08/17 15:33:39;;;;;;;7.90;2.10;;;;;;;;;;5033300;28;20029;-41
2022/08/17 15:36:06;;;;;;;2.58;1.90;;;;;;;;;;5050633;28;20044;-41
2022/08/17 15:38:35;;;;;;;3.13;2.10;;;;;;;;;;5050772;28;20064;-45
2022/08/17 15:41:01;;;;;;;4.70;1.70;;;;;;;;;;5051047;28;20025;-46
2022/08/17 15:43:31;;;;;;;4.22;2.10;;;;;;;;;;5050781;28;20411;-42
2022/08/17 15:46:11;;;;;;;3.10;1.85;;;;;;;;;;5050543;28;20443;-44
2022/08/17 15:48:41;;;;;;;3.28;1.95;;;;;;;;;;5050871;28;20027;-44
2022/08/17 15:51:16;;;;;;;5.30;1.65;;;;;;;;;;5051012;28;20028;-42